createdAt,value
2018-12-29T00:00:56.574Z,-1.90
2018-12-29T00:05:52.480Z,-1.90
2018-12-29T00:10:48.198Z,-2.00
2018-12-29T00:15:43.955Z,-2.00
2018-12-29T00:20:39.706Z,-2.10
2018-12-29T00:25:35.429Z,-2.10
2018-12-29T00:30:31.172Z,-2.20
2018-12-29T00:35:26.886Z,-2.20
2018-12-29T00:40:22.609Z,-2.10
2018-12-29T00:45:18.403Z,-2.10
2018-12-29T00:50:14.137Z,-2.20
2018-12-29T00:55:09.870Z,-2.30
2018-12-29T01:00:05.921Z,-2.30
2018-12-29T01:05:01.629Z,-2.40
2018-12-29T01:09:57.340Z,-2.40
2018-12-29T01:14:53.054Z,-2.40
2018-12-29T01:19:48.795Z,-2.40
2018-12-29T01:24:44.566Z,-2.40
2018-12-29T01:29:40.291Z,-2.50
2018-12-29T01:34:37.017Z,-2.50
2018-12-29T01:39:32.726Z,-2.70
2018-12-29T01:44:28.454Z,-2.60
2018-12-29T01:49:24.171Z,-2.60
2018-12-29T01:54:19.897Z,-2.60
2018-12-29T01:59:15.692Z,-2.70
2018-12-29T02:04:11.441Z,-2.70
2018-12-29T02:09:07.863Z,-2.80
2018-12-29T02:14:03.578Z,-2.70
2018-12-29T02:18:59.290Z,-2.80
2018-12-29T02:23:55.013Z,-2.80
2018-12-29T02:28:50.721Z,-2.80
2018-12-29T02:33:48.494Z,-2.80
2018-12-29T02:38:44.242Z,-2.90
2018-12-29T02:43:39.965Z,-3.00
2018-12-29T02:48:35.681Z,-3.00
2018-12-29T02:53:31.391Z,-3.00
2018-12-29T02:58:27.182Z,-3.00
2018-12-29T03:03:22.926Z,-3.00
2018-12-29T03:08:18.660Z,-3.00
2018-12-29T03:13:14.367Z,-3.00
2018-12-29T03:18:10.111Z,-3.10
2018-12-29T03:23:05.841Z,-3.10
2018-12-29T03:28:01.557Z,-3.10
2018-12-29T03:32:58.327Z,-3.10
2018-12-29T03:37:54.079Z,-3.10
2018-12-29T03:42:49.843Z,-3.20
2018-12-29T03:47:45.917Z,-3.40
2018-12-29T03:52:41.606Z,-3.40
2018-12-29T03:57:37.334Z,-3.40
2018-12-29T04:02:33.079Z,-3.40
2018-12-29T04:07:28.797Z,-3.30
2018-12-29T04:12:26.429Z,-3.30
2018-12-29T04:17:22.161Z,-3.30
2018-12-29T04:22:17.914Z,-3.30
2018-12-29T04:27:13.657Z,-3.30
2018-12-29T04:32:10.028Z,-3.30
2018-12-29T04:37:05.741Z,-3.30
2018-12-29T04:42:01.452Z,-3.30
2018-12-29T04:46:57.173Z,-3.40
2018-12-29T04:51:52.881Z,-3.40
2018-12-29T04:56:50.605Z,-3.40
2018-12-29T05:01:46.315Z,-3.40
2018-12-29T05:06:42.031Z,-3.40
2018-12-29T05:11:38.174Z,-3.40
2018-12-29T05:16:33.902Z,-3.30
2018-12-29T05:21:29.881Z,-3.40
2018-12-29T05:26:25.629Z,-3.40
2018-12-29T05:31:21.380Z,-3.30
2018-12-29T05:36:17.164Z,-3.30
2018-12-29T05:41:13.941Z,-3.30
2018-12-29T05:46:09.876Z,-3.30
2018-12-29T05:51:05.787Z,-3.20
2018-12-29T05:56:02.573Z,-3.20
2018-12-29T06:00:58.370Z,-2.30
2018-12-29T06:05:54.295Z,-2.40
2018-12-29T06:10:50.176Z,-2.60
2018-12-29T06:15:46.003Z,-2.60
2018-12-29T06:20:41.755Z,-2.70
2018-12-29T06:25:38.551Z,-2.80
2018-12-29T06:30:34.710Z,-2.90
2018-12-29T06:35:30.483Z,-3.10
2018-12-29T06:40:26.321Z,-3.10
2018-12-29T06:45:22.103Z,-3.10
2018-12-29T06:50:17.878Z,-3.10
2018-12-29T06:55:13.805Z,-3.20
2018-12-29T07:00:09.656Z,-3.20
2018-12-29T07:05:05.751Z,-3.20
2018-12-29T07:10:01.513Z,-3.20
2018-12-29T07:14:57.267Z,-3.10
2018-12-29T07:19:53.099Z,-3.10
2018-12-29T07:24:48.863Z,-3.10
2018-12-29T07:29:44.938Z,-3.00
2018-12-29T07:34:40.698Z,-2.90
2018-12-29T07:39:36.529Z,-2.80
2018-12-29T07:44:32.245Z,-2.70
2018-12-29T07:49:28.046Z,-2.60
2018-12-29T07:54:23.810Z,-2.50
2018-12-29T07:59:19.586Z,-2.40
2018-12-29T08:04:15.394Z,-2.20
2018-12-29T08:09:11.188Z,-2.20
2018-12-29T08:14:06.982Z,-2.10
2018-12-29T08:19:02.783Z,-1.90
2018-12-29T08:23:58.564Z,-1.80
2018-12-29T08:28:54.327Z,-1.70
2018-12-29T08:33:50.109Z,-1.50
2018-12-29T08:38:45.891Z,-1.30
2018-12-29T08:43:41.653Z,-1.10
2018-12-29T08:48:37.444Z,-1.00
2018-12-29T08:53:33.236Z,-0.80
2018-12-29T08:58:29.015Z,-0.60
2018-12-29T09:03:24.802Z,-0.40
2018-12-29T09:08:20.579Z,-0.20
2018-12-29T09:13:16.886Z,0.00
2018-12-29T09:18:12.641Z,0.20
2018-12-29T09:23:08.404Z,0.40
2018-12-29T09:28:04.156Z,0.60
2018-12-29T09:33:01.017Z,0.80
2018-12-29T09:37:56.786Z,1.10
2018-12-29T09:42:52.562Z,1.30
2018-12-29T09:47:48.334Z,1.60
2018-12-29T09:52:44.129Z,1.80
2018-12-29T09:57:43.031Z,2.10
2018-12-29T10:02:38.807Z,2.40
2018-12-29T10:07:34.627Z,2.80
2018-12-29T10:12:30.402Z,3.30
2018-12-29T10:17:26.976Z,3.70
2018-12-29T10:22:23.538Z,4.00
2018-12-29T10:27:19.339Z,4.30
2018-12-29T10:32:15.154Z,4.60
2018-12-29T10:37:10.967Z,4.90
2018-12-29T10:42:06.756Z,5.10
2018-12-29T10:47:03.808Z,5.10
2018-12-29T10:51:59.573Z,5.00
2018-12-29T10:56:55.344Z,5.10
2018-12-29T11:01:51.199Z,5.20
2018-12-29T11:06:48.022Z,5.30
2018-12-29T11:11:43.840Z,5.50
2018-12-29T11:16:43.052Z,5.60
2018-12-29T11:21:38.907Z,5.70
2018-12-29T11:26:34.675Z,5.60
2018-12-29T11:31:30.470Z,5.60
2018-12-29T11:36:26.276Z,5.50
2018-12-29T11:41:23.953Z,5.50
2018-12-29T11:46:19.539Z,5.60
2018-12-29T11:51:15.347Z,5.70
2018-12-29T11:56:11.130Z,5.70
2018-12-29T12:01:07.019Z,5.70
2018-12-29T12:06:03.108Z,5.70
2018-12-29T12:10:58.891Z,5.80
2018-12-29T12:15:55.004Z,5.90
2018-12-29T12:20:50.922Z,6.10
2018-12-29T12:25:46.732Z,6.60
2018-12-29T12:30:42.669Z,6.90
2018-12-29T12:35:38.663Z,6.80
2018-12-29T12:40:34.864Z,6.70
2018-12-29T12:45:30.951Z,6.50
2018-12-29T12:50:26.795Z,6.40
2018-12-29T12:55:22.565Z,6.40
2018-12-29T13:00:18.618Z,6.50
2018-12-29T13:05:14.460Z,6.60
2018-12-29T13:10:10.374Z,6.80
2018-12-29T13:15:06.381Z,7.10
2018-12-29T13:20:02.153Z,7.40
2018-12-29T13:24:57.944Z,7.50
2018-12-29T13:29:53.709Z,7.40
2018-12-29T13:34:49.482Z,7.30
2018-12-29T13:39:45.844Z,7.40
2018-12-29T13:44:41.634Z,7.40
2018-12-29T13:49:37.427Z,7.30
2018-12-29T13:54:33.184Z,7.50
2018-12-29T13:59:28.939Z,7.40
2018-12-29T14:04:24.704Z,7.30
2018-12-29T14:09:20.446Z,7.20
2018-12-29T14:14:16.193Z,6.90
2018-12-29T14:19:11.922Z,6.60
2018-12-29T14:24:07.658Z,6.40
2018-12-29T14:29:03.406Z,6.20
2018-12-29T14:33:59.146Z,6.00
2018-12-29T14:38:54.883Z,5.70
2018-12-29T14:43:51.063Z,5.50
2018-12-29T14:48:46.810Z,5.20
2018-12-29T14:53:42.566Z,5.00
2018-12-29T14:58:38.315Z,4.80
2018-12-29T15:03:34.062Z,4.70
2018-12-29T15:08:29.847Z,4.40
2018-12-29T15:13:25.598Z,4.30
2018-12-29T15:18:21.393Z,4.20
2018-12-29T15:23:17.577Z,4.00
2018-12-29T15:28:13.339Z,3.80
2018-12-29T15:33:09.489Z,3.60
2018-12-29T15:38:05.248Z,3.40
2018-12-29T15:43:01.415Z,3.20
2018-12-29T15:47:57.361Z,2.90
2018-12-29T15:52:53.914Z,2.70
2018-12-29T15:57:49.686Z,2.60
2018-12-29T16:02:45.426Z,2.40
2018-12-29T16:07:41.330Z,2.30
2018-12-29T16:12:37.080Z,2.10
2018-12-29T16:17:33.820Z,1.90
2018-12-29T16:22:29.952Z,1.80
2018-12-29T16:27:26.381Z,1.70
2018-12-29T16:32:22.131Z,1.60
2018-12-29T16:37:18.033Z,1.50
2018-12-29T16:42:16.456Z,1.40
2018-12-29T16:47:12.370Z,1.30
2018-12-29T16:52:08.690Z,1.10
2018-12-29T16:57:04.438Z,1.00
2018-12-29T17:02:00.618Z,0.90
2018-12-29T17:06:56.322Z,0.80
2018-12-29T17:11:52.770Z,0.70
2018-12-29T17:16:48.636Z,0.70
2018-12-29T17:21:44.377Z,0.70
2018-12-29T17:26:40.118Z,0.60
2018-12-29T17:31:35.846Z,0.50
2018-12-29T17:36:31.910Z,0.50
2018-12-29T17:41:27.668Z,0.50
2018-12-29T17:46:23.409Z,0.40
2018-12-29T17:51:21.699Z,0.20
2018-12-29T17:56:17.493Z,0.10
2018-12-29T18:01:13.234Z,0.00
2018-12-29T18:06:10.838Z,0.00
2018-12-29T18:11:06.560Z,-0.10
2018-12-29T18:16:02.321Z,-0.10
2018-12-29T18:20:58.200Z,-0.20
2018-12-29T18:25:54.226Z,-0.20
2018-12-29T18:30:49.977Z,-0.30
2018-12-29T18:35:46.027Z,-0.40
2018-12-29T18:40:41.855Z,-0.40
2018-12-29T18:45:37.579Z,-0.50
2018-12-29T18:50:33.517Z,-0.60
2018-12-29T18:55:30.319Z,-0.60
2018-12-29T19:00:26.058Z,-0.70
2018-12-29T19:05:21.842Z,-0.80
2018-12-29T19:10:17.542Z,-0.80
2018-12-29T19:15:13.558Z,-0.80
2018-12-29T19:20:09.806Z,-0.80
2018-12-29T19:25:05.711Z,-0.90
2018-12-29T19:30:02.802Z,-0.90
2018-12-29T19:34:58.721Z,-0.90
2018-12-29T19:39:58.573Z,-0.90
2018-12-29T19:44:54.398Z,-1.00
2018-12-29T19:49:53.779Z,-1.00
2018-12-29T19:54:47.945Z,-1.00
2018-12-29T19:59:44.102Z,-1.00
2018-12-29T20:04:40.114Z,-1.10
2018-12-29T20:09:37.449Z,-1.10
2018-12-29T20:14:33.255Z,-1.20
2018-12-29T20:19:29.062Z,-1.20
2018-12-29T20:24:25.145Z,-1.20
2018-12-29T20:29:20.919Z,-1.20
2018-12-29T20:34:16.645Z,-1.30
2018-12-29T20:39:12.686Z,-1.30
2018-12-29T20:44:08.435Z,-1.30
2018-12-29T20:49:04.209Z,-1.30
2018-12-29T20:54:00.313Z,-1.30
2018-12-29T20:58:56.113Z,-1.30
2018-12-29T21:03:51.891Z,-1.30
2018-12-29T21:08:48.675Z,-1.30
2018-12-29T21:13:44.755Z,-1.20
2018-12-29T21:18:40.641Z,-1.20
2018-12-29T21:23:36.422Z,-1.30
2018-12-29T21:28:32.215Z,-1.30
2018-12-29T21:33:29.341Z,-1.20
2018-12-29T21:38:25.398Z,-1.20
2018-12-29T21:43:23.650Z,-1.20
2018-12-29T21:48:19.451Z,-1.10
2018-12-29T21:53:15.254Z,-1.10
2018-12-29T21:58:11.080Z,-1.10
2018-12-29T22:03:06.837Z,-1.10
2018-12-29T22:08:02.592Z,-1.10
2018-12-29T22:12:58.390Z,-1.10
2018-12-29T22:17:55.307Z,-1.00
2018-12-29T22:22:51.099Z,-1.10
2018-12-29T22:27:46.939Z,-1.00
2018-12-29T22:32:43.142Z,-1.00
2018-12-29T22:37:38.907Z,-1.00
2018-12-29T22:42:34.845Z,-1.00
2018-12-29T22:47:30.618Z,-1.00
2018-12-29T22:52:26.415Z,-1.00
2018-12-29T22:57:22.167Z,-0.90
2018-12-29T23:02:18.219Z,-0.90
2018-12-29T23:07:13.955Z,-0.90
2018-12-29T23:12:21.496Z,-1.00
2018-12-29T23:17:16.729Z,-1.10
2018-12-29T23:22:12.485Z,-1.10
2018-12-29T23:27:08.217Z,-1.10
2018-12-29T23:32:03.957Z,-1.10
2018-12-29T23:37:00.095Z,-1.10
2018-12-29T23:41:56.045Z,-1.10
2018-12-29T23:46:51.753Z,-1.10
2018-12-29T23:51:47.892Z,-1.10
2018-12-29T23:56:43.612Z,-1.10
